Time;durP1;ratioP1;P1;durP2;ratioP2;P2;SDS_P1;SDS_P2;PMS_P1;PMS_P2;Temp;Humidity;BMP_temperature;BMP_pressure;BME280_temperature;BME280_humidity;BME280_pressure;Samples;Min_cycle;Max_cycle;Signal;HPM_P1;HPM_P2
2022/07/03 00:01:56;;;;;;;3.05;1.50;;;;;;;11.61;98.49;101392.41;5027037;28;20018;-77
2022/07/03 00:04:21;;;;;;;4.65;1.75;;;;;;;11.73;98.19;101412.63;5004438;28;20040;-77
2022/07/03 00:06:47;;;;;;;4.43;1.77;;;;;;;11.62;98.29;101411.09;5010799;28;20041;-77
2022/07/03 00:09:13;;;;;;;2.83;1.30;;;;;;;11.54;99.04;101410.25;4983335;28;20041;-76
2022/07/03 00:11:39;;;;;;;4.55;1.70;;;;;;;11.53;99.69;101414.78;5009775;28;20087;-78
2022/07/03 00:14:05;;;;;;;8.10;2.05;;;;;;;11.53;99.75;101413.94;5009354;28;20045;-78
2022/07/03 00:16:30;;;;;;;5.28;1.60;;;;;;;11.51;100.00;101410.56;5009476;28;20489;-78
2022/07/03 00:18:56;;;;;;;3.20;1.17;;;;;;;11.59;100.00;101421.34;5006388;28;20056;-77
2022/07/03 00:21:29;;;;;;;3.85;1.45;;;;;;;11.58;100.00;101422.38;5009117;28;20072;-77
2022/07/03 00:24:02;;;;;;;4.15;1.30;;;;;;;11.55;100.00;101428.94;5017001;28;20033;-77
2022/07/03 00:26:30;;;;;;;3.50;1.30;;;;;;;11.53;100.00;101443.56;4992986;28;20060;-76
2022/07/03 00:28:58;;;;;;;3.00;1.30;;;;;;;11.38;100.00;101444.22;5018892;28;20037;-77
2022/07/03 00:31:24;;;;;;;7.05;1.85;;;;;;;11.18;100.00;101440.94;5002431;28;20462;-77
2022/07/03 00:33:50;;;;;;;4.00;1.58;;;;;;;10.98;100.00;101434.13;5019055;28;20117;-78
2022/07/03 00:36:16;;;;;;;2.35;1.20;;;;;;;10.90;100.00;101448.44;5025771;28;20064;-77
2022/07/03 00:38:44;;;;;;;2.55;1.10;;;;;;;10.79;100.00;101440.63;5005825;28;20033;-77
2022/07/03 00:41:24;;;;;;;2.85;1.75;;;;;;;10.71;100.00;101432.50;5012043;28;20038;-77
2022/07/03 00:43:50;;;;;;;5.32;1.77;;;;;;;10.67;100.00;101450.81;5020408;28;20046;-78
2022/07/03 00:46:17;;;;;;;5.22;1.92;;;;;;;10.64;100.00;101445.75;5028139;28;20083;-76
2022/07/03 00:48:46;;;;;;;4.05;1.55;;;;;;;10.56;100.00;101443.03;4986954;28;20042;-77
2022/07/03 00:51:15;;;;;;;4.97;1.30;;;;;;;10.51;100.00;101443.50;5005064;28;20041;-77
2022/07/03 00:53:41;;;;;;;2.22;1.30;;;;;;;10.47;100.00;101436.75;5022545;28;20057;-76
2022/07/03 00:56:11;;;;;;;4.85;1.90;;;;;;;10.43;100.00;101435.38;4993574;28;20033;-77
2022/07/03 00:58:37;;;;;;;4.60;1.48;;;;;;;10.42;100.00;101449.81;5009273;28;20038;-78
2022/07/03 01:01:03;;;;;;;2.17;1.25;;;;;;;10.39;100.00;101450.13;5019350;28;20048;-77
2022/07/03 01:03:33;;;;;;;5.00;1.42;;;;;;;10.40;100.00;101446.47;5005896;28;20105;-78
2022/07/03 01:06:03;;;;;;;1.92;1.00;;;;;;;10.36;100.00;101447.75;4993727;28;20041;-77
2022/07/03 01:08:51;;;;;;;3.58;1.45;;;;;;;10.40;100.00;101453.66;5007456;28;20475;-77
2022/07/03 01:11:19;;;;;;;7.57;1.30;;;;;;;10.37;100.00;101456.66;5012259;28;20037;-76
2022/07/03 01:14:09;;;;;;;2.90;1.30;;;;;;;10.36;100.00;101453.13;5024138;28;20029;-76
2022/07/03 01:17:06;;;;;;;2.97;1.30;;;;;;;10.30;100.00;101456.47;5014818;28;20030;-76
2022/07/03 01:19:46;;;;;;;2.83;1.60;;;;;;;10.29;100.00;101458.31;5023342;28;20393;-76
2022/07/03 01:22:34;;;;;;;4.75;1.67;;;;;;;10.26;100.00;101453.19;5001357;28;20101;-76
2022/07/03 01:25:33;;;;;;;6.10;1.10;;;;;;;10.25;100.00;101458.75;4999852;28;20033;-77
2022/07/03 01:28:03;;;;;;;3.85;1.88;;;;;;;10.26;100.00;101463.09;5011773;28;20049;-77
2022/07/03 01:30:36;;;;;;;6.55;1.80;;;;;;;10.19;100.00;101444.09;5007398;28;20033;-77
2022/07/03 01:33:16;;;;;;;3.67;1.60;;;;;;;10.22;100.00;101459.06;5011112;28;20060;-77
2022/07/03 01:35:58;;;;;;;9.02;2.00;;;;;;;10.24;100.00;101460.59;4996021;28;20530;-77
2022/07/03 01:38:29;;;;;;;5.10;1.73;;;;;;;10.23;100.00;101474.19;5011480;28;20090;-77
2022/07/03 01:40:59;;;;;;;2.90;1.52;;;;;;;10.17;100.00;101472.97;5027005;28;20033;-76
2022/07/03 01:43:33;;;;;;;3.92;1.60;;;;;;;10.16;100.00;101473.09;5026909;28;20216;-77
2022/07/03 01:46:01;;;;;;;5.65;1.65;;;;;;;10.06;100.00;101455.25;5012247;28;20037;-76
2022/07/03 01:48:28;;;;;;;8.48;1.70;;;;;;;10.15;100.00;101466.06;5019747;28;20053;-76
2022/07/03 01:50:55;;;;;;;3.33;1.52;;;;;;;10.23;100.00;101471.50;5007256;28;20033;-77
2022/07/03 01:53:23;;;;;;;2.90;1.30;;;;;;;10.24;100.00;101467.78;5010241;28;20545;-77
2022/07/03 01:55:50;;;;;;;3.35;1.73;;;;;;;10.20;100.00;101469.97;4998697;28;20067;-77
2022/07/03 01:58:15;;;;;;;3.88;1.50;;;;;;;10.20;100.00;101461.91;4991225;28;20033;-77
2022/07/03 02:00:52;;;;;;;2.70;1.35;;;;;;;10.23;100.00;101469.63;5026266;28;20041;-77
2022/07/03 02:03:32;;;;;;;3.25;1.70;;;;;;;10.24;100.00;101467.78;5008295;28;20039;-77
2022/07/03 02:06:08;;;;;;;5.05;1.77;;;;;;;10.15;100.00;101453.44;5006533;28;20184;-76
2022/07/03 02:08:52;;;;;;;3.15;1.50;;;;;;;10.28;100.00;101475.44;5054776;28;20037;-77
2022/07/03 02:11:20;;;;;;;5.75;1.52;;;;;;;10.32;100.00;101473.28;5006861;28;20038;-77
2022/07/03 02:14:01;;;;;;;4.55;1.45;;;;;;;10.29;100.00;101452.94;5005797;28;20029;-77
2022/07/03 02:16:27;;;;;;;5.43;1.30;;;;;;;10.35;100.00;101464.91;5027911;28;20102;-76
2022/07/03 02:18:58;;;;;;;5.60;1.77;;;;;;;10.26;100.00;101450.50;4991765;28;20038;-77
2022/07/03 02:21:27;;;;;;;4.97;1.33;;;;;;;10.31;100.00;101460.81;5023418;28;20040;-77
2022/07/03 02:24:01;;;;;;;6.80;1.60;;;;;;;10.33;100.00;101461.53;5028256;28;20029;-77
2022/07/03 02:26:32;;;;;;;2.33;1.33;;;;;;;10.22;100.00;101454.53;5026576;28;21075;-78
2022/07/03 02:29:02;;;;;;;2.55;1.40;;;;;;;10.28;100.00;101464.69;5027238;28;20120;-77
2022/07/03 02:31:34;;;;;;;2.63;1.40;;;;;;;10.29;100.00;101470.88;5026957;28;20031;-77
2022/07/03 02:34:01;;;;;;;3.95;1.10;;;;;;;10.26;100.00;101472.00;4994811;28;20049;-76
2022/07/03 02:36:32;;;;;;;4.07;1.33;;;;;;;10.26;100.00;101469.31;5029416;28;21206;-77
2022/07/03 02:38:58;;;;;;;3.03;1.05;;;;;;;10.20;100.00;101464.59;4990438;28;20034;-76
2022/07/03 02:41:46;;;;;;;4.65;1.40;;;;;;;10.27;100.00;101462.13;5003915;28;22125;-77
2022/07/03 02:44:26;;;;;;;6.53;1.60;;;;;;;10.23;100.00;101466.13;5022055;28;20469;-77
2022/07/03 02:47:02;;;;;;;4.57;1.60;;;;;;;10.08;100.00;101445.19;5024415;28;20383;-78
2022/07/03 02:49:52;;;;;;;4.95;1.55;;;;;;;10.21;100.00;101473.47;5011057;28;20049;-77
2022/07/03 02:52:42;;;;;;;2.38;1.20;;;;;;;10.02;100.00;101453.84;5003841;28;20068;-77
2022/07/03 02:55:32;;;;;;;4.55;1.23;;;;;;;10.20;100.00;101482.56;5010301;28;20502;-78
2022/07/03 02:58:32;;;;;;;3.40;1.35;;;;;;;10.12;100.00;101476.09;5017239;28;20057;-78
2022/07/03 03:01:09;;;;;;;5.13;0.90;;;;;;;10.24;100.00;101491.97;5008505;28;20113;-78
2022/07/03 03:03:37;;;;;;;2.17;1.02;;;;;;;10.20;100.00;101477.19;5001178;28;20071;-78
2022/07/03 03:06:10;;;;;;;2.83;1.42;;;;;;;10.33;100.00;101491.94;5018114;28;20495;-79
2022/07/03 03:08:42;;;;;;;1.38;1.08;;;;;;;10.42;100.00;101503.59;4994401;28;20030;-77
2022/07/03 03:11:14;;;;;;;2.75;1.50;;;;;;;10.42;100.00;101490.13;4993062;28;20041;-77
2022/07/03 03:13:41;;;;;;;2.10;1.10;;;;;;;10.33;100.00;101477.66;5009552;28;20041;-78
2022/07/03 03:16:09;;;;;;;2.65;1.02;;;;;;;10.39;100.00;101487.75;5039114;28;20044;-77
2022/07/03 03:18:39;;;;;;;2.72;1.65;;;;;;;10.29;100.00;101473.56;5025633;28;20029;-77
2022/07/03 03:21:09;;;;;;;4.25;1.00;;;;;;;10.23;100.00;101476.88;5007051;28;20045;-78
2022/07/03 03:23:50;;;;;;;8.75;1.75;;;;;;;10.15;100.00;101480.31;5016308;28;20064;-77
2022/07/03 03:26:25;;;;;;;2.88;1.08;;;;;;;10.00;100.00;101477.38;5020331;28;20034;-77
2022/07/03 03:28:52;;;;;;;1.90;1.10;;;;;;;10.01;100.00;101486.25;5024087;28;20035;-77
2022/07/03 03:31:18;;;;;;;3.17;1.58;;;;;;;9.90;100.00;101482.81;5008599;28;20103;-77
2022/07/03 03:33:48;;;;;;;4.82;1.13;;;;;;;9.86;100.00;101486.78;5027607;28;20045;-76
2022/07/03 03:36:16;;;;;;;5.13;1.10;;;;;;;9.84;100.00;101483.44;5005440;28;20053;-77
2022/07/03 03:38:42;;;;;;;5.18;1.40;;;;;;;9.76;100.00;101469.91;5026442;28;20037;-77
2022/07/03 03:41:08;;;;;;;3.35;1.10;;;;;;;9.79;100.00;101475.00;5024145;28;20133;-77
2022/07/03 03:43:34;;;;;;;3.72;1.30;;;;;;;9.79;100.00;101479.50;5023681;28;20116;-77
2022/07/03 03:46:01;;;;;;;4.18;1.33;;;;;;;9.73;100.00;101467.53;4994784;28;20053;-78
2022/07/03 03:48:27;;;;;;;3.42;1.17;;;;;;;9.72;100.00;101476.59;5023446;28;20025;-78
2022/07/03 03:50:53;;;;;;;5.55;1.30;;;;;;;9.71;100.00;101464.13;5008212;28;20051;-76
2022/07/03 03:53:19;;;;;;;2.83;1.20;;;;;;;9.79;100.00;101476.81;4995242;28;20116;-77
2022/07/03 03:56:07;;;;;;;4.75;1.70;;;;;;;9.76;100.00;101490.53;5002132;28;20454;-78
2022/07/03 03:58:34;;;;;;;4.85;1.40;;;;;;;9.76;100.00;101496.75;5024504;28;20131;-76
2022/07/03 04:01:02;;;;;;;2.95;1.30;;;;;;;9.78;100.00;101493.94;5011536;28;20033;-76
2022/07/03 04:03:29;;;;;;;8.05;1.52;;;;;;;9.79;100.00;101498.28;5007665;28;20026;-77
2022/07/03 04:05:55;;;;;;;1.85;1.00;;;;;;;9.80;100.00;101491.94;4988448;28;20146;-77
2022/07/03 04:08:23;;;;;;;3.05;1.17;;;;;;;9.73;100.00;101491.69;5043588;28;20044;-78
2022/07/03 04:10:49;;;;;;;3.53;1.38;;;;;;;9.85;100.00;101506.59;5019637;28;20029;-77
2022/07/03 04:13:15;;;;;;;3.10;1.38;;;;;;;9.87;100.00;101503.75;5019441;28;20030;-76
2022/07/03 04:15:41;;;;;;;2.10;1.15;;;;;;;9.91;100.00;101503.28;5008819;28;20128;-77
2022/07/03 04:18:07;;;;;;;8.45;1.90;;;;;;;9.96;100.00;101510.91;5010547;28;20079;-77
2022/07/03 04:20:32;;;;;;;1.67;1.00;;;;;;;9.96;100.00;101500.16;5021107;28;20399;-77
2022/07/03 04:22:58;;;;;;;5.68;1.90;;;;;;;10.00;100.00;101506.91;5024086;28;20123;-78
2022/07/03 04:25:24;;;;;;;6.53;1.33;;;;;;;10.01;100.00;101507.75;4991592;28;20451;-77
2022/07/03 04:27:50;;;;;;;6.63;1.52;;;;;;;10.02;100.00;101507.59;5010265;28;20029;-77
2022/07/03 04:30:16;;;;;;;2.55;1.40;;;;;;;9.96;100.00;101492.09;5008670;28;20044;-77
2022/07/03 04:32:42;;;;;;;3.42;1.17;;;;;;;9.99;100.00;101494.47;5023120;28;22487;-77
2022/07/03 04:35:08;;;;;;;2.50;1.10;;;;;;;10.11;100.00;101501.31;5024283;28;20092;-77
2022/07/03 04:37:34;;;;;;;2.15;1.15;;;;;;;10.15;100.00;101507.19;4990911;28;20037;-77
2022/07/03 04:39:59;;;;;;;2.28;1.05;;;;;;;10.16;100.00;101513.41;5015566;28;20060;-77
2022/07/03 04:42:25;;;;;;;8.07;1.40;;;;;;;10.10;100.00;101488.00;5002586;28;20034;-77
2022/07/03 04:44:53;;;;;;;3.97;1.08;;;;;;;10.24;100.00;101508.09;5008794;28;20418;-78
2022/07/03 04:47:18;;;;;;;3.88;1.25;;;;;;;10.23;100.00;101506.44;5003314;28;20065;-77
2022/07/03 04:49:44;;;;;;;2.85;1.05;;;;;;;10.22;100.00;101508.28;5009599;28;20461;-77
2022/07/03 04:52:10;;;;;;;4.13;1.08;;;;;;;10.23;100.00;101517.19;5005971;28;20483;-76
2022/07/03 04:54:36;;;;;;;1.73;1.13;;;;;;;10.17;100.00;101507.91;5027033;28;20049;-77
2022/07/03 04:57:02;;;;;;;4.07;1.20;;;;;;;10.18;100.00;101511.41;5001118;28;20088;-76
2022/07/03 04:59:28;;;;;;;3.03;1.27;;;;;;;10.15;100.00;101514.44;5008223;28;20029;-78
2022/07/03 05:01:53;;;;;;;3.90;1.08;;;;;;;10.21;100.00;101521.84;4993465;28;20566;-76
2022/07/03 05:04:19;;;;;;;6.35;1.27;;;;;;;10.21;100.00;101521.84;5029193;28;20391;-77
2022/07/03 05:06:45;;;;;;;3.78;1.20;;;;;;;10.24;100.00;101521.53;5013692;28;20087;-76
2022/07/03 05:09:10;;;;;;;3.65;1.20;;;;;;;10.29;100.00;101530.03;5012930;28;20124;-77
2022/07/03 05:11:36;;;;;;;5.70;1.20;;;;;;;10.40;100.00;101534.31;5000912;28;20045;-76
2022/07/03 05:14:03;;;;;;;2.28;0.90;;;;;;;10.50;100.00;101543.97;5005424;28;20073;-76
2022/07/03 05:16:28;;;;;;;3.05;1.27;;;;;;;10.50;100.00;101527.00;5020730;28;20060;-77
2022/07/03 05:18:54;;;;;;;5.18;1.30;;;;;;;10.62;100.00;101541.06;5009919;28;20477;-77
2022/07/03 05:21:19;;;;;;;2.72;1.00;;;;;;;10.72;100.00;101549.88;5027479;28;20526;-78
2022/07/03 05:23:45;;;;;;;2.92;1.10;;;;;;;10.77;100.00;101543.00;5013626;28;20387;-76
2022/07/03 05:26:11;;;;;;;3.33;1.10;;;;;;;10.84;100.00;101553.13;5010314;28;20045;-77
2022/07/03 05:28:36;;;;;;;5.43;2.20;;;;;;;10.90;100.00;101547.09;5031910;28;20441;-77
2022/07/03 05:31:02;;;;;;;4.75;1.30;;;;;;;10.93;100.00;101542.28;5002556;28;20049;-78
2022/07/03 05:33:28;;;;;;;4.00;1.42;;;;;;;11.06;100.00;101552.63;5018387;28;20029;-77
2022/07/03 05:35:58;;;;;;;2.72;1.20;;;;;;;11.12;100.00;101545.75;5011291;28;20080;-77
2022/07/03 05:41:08;;;;;;;2.75;1.27;;;;;;;11.23;100.00;101548.16;5014825;28;20044;-78
2022/07/03 05:43:34;;;;;;;3.28;1.50;;;;;;;11.25;100.00;101554.22;5015328;28;20041;-77
2022/07/03 05:46:00;;;;;;;3.28;1.30;;;;;;;11.32;100.00;101549.03;5011362;28;20042;-77
2022/07/03 05:48:25;;;;;;;4.50;1.77;;;;;;;11.39;100.00;101553.59;5009526;28;20394;-76
2022/07/03 05:50:51;;;;;;;2.97;1.05;;;;;;;11.37;100.00;101546.69;5018136;28;20168;-77
2022/07/03 05:53:17;;;;;;;3.60;1.10;;;;;;;11.48;100.00;101562.56;5028832;28;20025;-77
2022/07/03 05:55:42;;;;;;;5.15;1.15;;;;;;;11.47;100.00;101552.81;5003459;28;20033;-77
2022/07/03 05:58:08;;;;;;;4.68;1.10;;;;;;;11.52;100.00;101558.53;5004675;28;20107;-77
2022/07/03 06:00:34;;;;;;;2.88;1.00;;;;;;;11.48;100.00;101546.41;5011093;28;20037;-78
2022/07/03 06:03:01;;;;;;;4.55;1.00;;;;;;;11.59;100.00;101570.38;5013415;28;20038;-76
2022/07/03 06:05:28;;;;;;;2.60;0.90;;;;;;;11.71;100.00;101573.59;4997938;28;20041;-77
2022/07/03 06:07:54;;;;;;;5.35;1.10;;;;;;;11.67;100.00;101542.63;5028305;28;20037;-78
2022/07/03 06:10:19;;;;;;;7.03;1.40;;;;;;;12.01;100.00;101579.41;5019244;28;20037;-78
2022/07/03 06:12:45;;;;;;;4.85;1.10;;;;;;;12.12;100.00;101573.75;5026083;28;20548;-78
2022/07/03 06:15:11;;;;;;;3.17;1.20;;;;;;;12.32;100.00;101580.47;5025852;28;20095;-78
2022/07/03 06:17:37;;;;;;;3.92;1.20;;;;;;;12.58;100.00;101573.25;5007780;28;20030;-80
2022/07/03 06:20:04;;;;;;;1.92;1.20;;;;;;;12.85;100.00;101580.97;5004413;28;20402;-78
2022/07/03 06:22:30;;;;;;;3.60;0.90;;;;;;;12.99;100.00;101582.13;5026216;28;20049;-77
2022/07/03 06:24:55;;;;;;;3.63;1.00;;;;;;;12.90;100.00;101583.19;5020833;28;20086;-78
2022/07/03 06:27:21;;;;;;;5.60;1.35;;;;;;;12.71;100.00;101585.22;5021405;28;20057;-77
2022/07/03 06:29:49;;;;;;;3.13;1.13;;;;;;;12.57;100.00;101580.53;5023919;28;20029;-77
2022/07/03 06:32:15;;;;;;;4.70;1.10;;;;;;;12.51;100.00;101582.00;5027171;28;20535;-77
2022/07/03 06:34:42;;;;;;;3.08;1.20;;;;;;;12.66;100.00;101582.19;5008711;28;20026;-77
2022/07/03 06:37:09;;;;;;;1.83;1.00;;;;;;;12.82;100.00;101577.78;5012500;28;21017;-77
2022/07/03 06:39:35;;;;;;;2.25;0.95;;;;;;;12.96;99.80;101567.13;5014490;28;20025;-77
2022/07/03 06:42:00;;;;;;;5.57;1.27;;;;;;;13.21;99.84;101594.09;5024573;28;20060;-77
2022/07/03 06:44:26;;;;;;;7.97;1.60;;;;;;;13.41;97.09;101598.09;5015103;28;20461;-76
2022/07/03 06:46:51;;;;;;;2.85;1.23;;;;;;;13.45;96.30;101589.66;5003262;28;20038;-81
2022/07/03 06:49:17;;;;;;;4.45;1.33;;;;;;;13.62;96.67;101594.81;5010580;28;20038;-79
2022/07/03 06:51:43;;;;;;;5.70;1.45;;;;;;;13.83;95.86;101596.91;5025754;28;20123;-78
2022/07/03 06:54:08;;;;;;;4.88;1.40;;;;;;;14.13;93.61;101599.81;5000335;28;20042;-80
2022/07/03 06:56:39;;;;;;;2.80;0.93;;;;;;;14.11;93.40;101599.13;5013974;28;20030;-79
2022/07/03 06:59:04;;;;;;;3.42;1.00;;;;;;;14.22;92.31;101600.59;5011720;28;20060;-79
2022/07/03 07:01:30;;;;;;;3.60;1.30;;;;;;;14.37;91.61;101604.22;5007894;28;20116;-78
2022/07/03 07:03:56;;;;;;;3.30;0.95;;;;;;;14.56;89.12;101599.38;4993544;28;20544;-79
2022/07/03 07:06:22;;;;;;;5.90;1.30;;;;;;;14.64;88.76;101602.84;5008650;28;20030;-79
2022/07/03 07:08:47;;;;;;;4.00;1.20;;;;;;;14.63;87.75;101593.06;5007053;28;20442;-79
2022/07/03 07:11:13;;;;;;;3.65;0.90;;;;;;;14.61;87.85;101595.09;5006339;28;20037;-77
2022/07/03 07:13:39;;;;;;;13.25;1.50;;;;;;;14.55;87.86;101589.53;5010967;28;20080;-78
2022/07/03 07:16:08;;;;;;;3.45;1.10;;;;;;;14.68;86.78;101587.91;5002956;28;20132;-78
2022/07/03 07:18:34;;;;;;;3.17;1.15;;;;;;;14.73;86.19;101584.66;5002789;28;20067;-79
2022/07/03 07:21:00;;;;;;;4.78;0.98;;;;;;;15.01;83.72;101605.75;5016107;28;20030;-78
2022/07/03 07:23:25;;;;;;;3.85;1.00;;;;;;;15.07;83.25;101602.28;5010222;28;20124;-78
2022/07/03 07:25:51;;;;;;;4.22;1.25;;;;;;;15.18;83.04;101615.34;4990907;28;20121;-76
2022/07/03 07:28:20;;;;;;;4.28;1.13;;;;;;;15.35;79.99;101624.19;4981776;28;20400;-78
2022/07/03 07:30:45;;;;;;;1.88;0.90;;;;;;;15.53;77.92;101621.94;5005672;28;20485;-77
2022/07/03 07:33:11;;;;;;;2.85;1.08;;;;;;;15.67;79.16;101622.94;4999967;28;20551;-78
2022/07/03 07:35:37;;;;;;;4.00;0.98;;;;;;;15.93;78.24;101622.47;5018226;28;20041;-77
2022/07/03 07:38:03;;;;;;;2.10;0.60;;;;;;;16.09;74.21;101625.97;5027426;28;20386;-78
2022/07/03 07:40:29;;;;;;;1.75;1.00;;;;;;;16.03;71.67;101617.56;4987417;28;20034;-78
2022/07/03 07:42:55;;;;;;;2.72;0.90;;;;;;;15.82;73.00;101620.22;5018737;28;20200;-77
2022/07/03 07:45:22;;;;;;;4.32;1.35;;;;;;;15.34;75.31;101639.56;5009248;28;20026;-77
2022/07/03 07:47:48;;;;;;;1.23;1.00;;;;;;;14.99;75.59;101645.69;4997046;28;20079;-77
2022/07/03 07:50:14;;;;;;;3.35;0.90;;;;;;;14.58;77.48;101648.72;5026988;28;20030;-76
2022/07/03 07:52:40;;;;;;;2.65;0.73;;;;;;;14.64;76.09;101658.84;4981782;28;20162;-76
2022/07/03 07:55:07;;;;;;;1.17;0.80;;;;;;;14.95;75.52;101650.63;5002735;28;20033;-78
2022/07/03 07:57:37;;;;;;;1.17;0.60;;;;;;;15.01;75.26;101608.44;4990500;28;20034;-77
2022/07/03 08:00:11;;;;;;;1.80;0.80;;;;;;;15.46;73.94;101653.53;5000769;28;20042;-77
2022/07/03 08:05:37;;;;;;;1.95;1.20;;;;;;;15.97;72.44;101650.06;5014541;28;20395;-79
2022/07/03 08:08:05;;;;;;;1.75;0.70;;;;;;;16.35;71.15;101658.00;5015278;28;20029;-77
2022/07/03 08:10:48;;;;;;;2.88;0.80;;;;;;;16.81;68.51;101649.53;5011357;28;20030;-77
2022/07/03 08:13:15;;;;;;;1.58;0.80;;;;;;;17.39;66.46;101665.66;5006800;28;20034;-77
2022/07/03 08:15:41;;;;;;;0.70;0.70;;;;;;;17.44;65.00;101663.16;5024891;28;20033;-76
2022/07/03 08:18:07;;;;;;;1.55;0.80;;;;;;;17.26;65.17;101667.25;5001446;28;20041;-78
2022/07/03 08:20:33;;;;;;;0.80;0.70;;;;;;;17.33;64.03;101675.44;4984503;28;20095;-76
2022/07/03 08:22:59;;;;;;;0.68;0.52;;;;;;;17.31;64.82;101669.38;5004466;28;20041;-77
2022/07/03 08:25:25;;;;;;;1.38;0.70;;;;;;;17.30;64.09;101673.94;5001006;28;20041;-77
2022/07/03 08:27:51;;;;;;;3.20;0.90;;;;;;;17.38;63.63;101683.84;4987143;28;20081;-76
2022/07/03 08:30:18;;;;;;;2.80;0.70;;;;;;;17.46;64.28;101683.69;4983592;28;20484;-78
2022/07/03 08:32:45;;;;;;;0.98;0.60;;;;;;;17.51;63.58;101681.19;4997016;28;20411;-77
2022/07/03 08:35:11;;;;;;;2.17;0.80;;;;;;;17.40;64.13;101684.47;5002630;28;20030;-76
2022/07/03 08:37:40;;;;;;;3.92;0.90;;;;;;;17.19;63.55;101660.91;4989252;28;20038;-76
2022/07/03 08:40:10;;;;;;;2.28;0.70;;;;;;;17.00;64.07;101678.72;5002218;28;20053;-76
2022/07/03 08:42:38;;;;;;;3.42;0.80;;;;;;;16.90;64.71;101689.09;5020117;28;20434;-77
2022/07/03 08:45:05;;;;;;;1.92;0.73;;;;;;;16.73;66.81;101690.38;5008501;28;20042;-76
2022/07/03 08:47:32;;;;;;;3.00;0.80;;;;;;;16.82;67.43;101689.22;4990078;28;20037;-76
2022/07/03 08:50:00;;;;;;;1.20;0.70;;;;;;;17.01;66.61;101688.56;5016566;28;20046;-77
2022/07/03 08:52:26;;;;;;;2.08;0.80;;;;;;;17.06;64.84;101690.69;5018716;28;20037;-76
2022/07/03 08:54:52;;;;;;;3.45;0.95;;;;;;;17.01;65.35;101699.44;5010122;28;20033;-75
2022/07/03 08:57:18;;;;;;;5.22;1.35;;;;;;;17.16;65.59;101703.97;5025193;28;20490;-75
2022/07/03 08:59:46;;;;;;;2.70;0.82;;;;;;;17.34;65.19;101702.44;5018683;28;20083;-76
2022/07/03 09:02:12;;;;;;;6.10;0.90;;;;;;;17.47;66.19;101703.56;5009658;28;20046;-78
2022/07/03 09:04:38;;;;;;;1.67;0.88;;;;;;;17.78;64.92;101701.25;5023441;28;20029;-77
2022/07/03 09:07:06;;;;;;;1.17;0.80;;;;;;;18.20;62.27;101693.09;5014876;28;20033;-76
2022/07/03 09:09:32;;;;;;;4.78;1.00;;;;;;;19.04;58.23;101694.56;5013099;28;20033;-76
2022/07/03 09:11:58;;;;;;;4.20;0.80;;;;;;;19.31;55.75;101689.94;5006511;28;20037;-77
2022/07/03 09:14:24;;;;;;;2.22;0.90;;;;;;;19.53;55.66;101691.41;5005655;28;20062;-76
2022/07/03 09:16:50;;;;;;;3.08;0.90;;;;;;;19.96;54.87;101690.06;4993774;28;20064;-81
2022/07/03 09:19:46;;;;;;;3.45;0.82;;;;;;;21.27;51.59;101691.34;5001104;28;20530;-82
2022/07/03 09:22:22;;;;;;;1.83;0.90;;;;;;;22.60;47.15;101681.66;5007577;28;20479;-78
2022/07/03 09:24:51;;;;;;;1.17;0.70;;;;;;;22.50;46.95;101692.34;5006662;28;20034;-79
2022/07/03 09:27:26;;;;;;;1.25;0.90;;;;;;;22.36;46.01;101684.31;4997314;28;20034;-80
2022/07/03 09:29:57;;;;;;;1.58;0.80;;;;;;;21.81;47.23;101676.13;5029892;28;20029;-79
2022/07/03 09:32:23;;;;;;;2.22;0.60;;;;;;;20.74;48.57;101669.91;5028495;28;20029;-81
2022/07/03 09:34:49;;;;;;;0.77;0.63;;;;;;;19.52;49.89;101684.25;5029756;28;20605;-79
2022/07/03 09:37:24;;;;;;;1.30;0.63;;;;;;;18.33;52.86;101684.97;5030715;28;20124;-78
2022/07/03 09:39:57;;;;;;;1.25;0.50;;;;;;;17.48;56.38;101697.91;5011584;28;20037;-79
2022/07/03 09:42:22;;;;;;;2.67;0.80;;;;;;;16.92;59.04;101687.84;5014685;28;20042;-80
2022/07/03 09:44:48;;;;;;;1.08;0.63;;;;;;;16.81;59.55;101712.00;5014671;28;20040;-79
2022/07/03 09:47:23;;;;;;;2.85;0.80;;;;;;;16.61;61.46;101709.88;5026850;28;20033;-81
2022/07/03 09:49:57;;;;;;;0.73;0.55;;;;;;;16.45;63.65;101721.81;5016354;28;20030;-81
2022/07/03 09:52:42;;;;;;;1.65;0.90;;;;;;;16.10;66.32;101712.63;4994261;28;20132;-80
2022/07/03 09:55:08;;;;;;;0.95;0.70;;;;;;;16.47;64.17;101713.47;5011387;28;20387;-81
2022/07/03 09:57:34;;;;;;;1.20;0.77;;;;;;;16.73;63.67;101728.41;5028969;28;20040;-82
2022/07/03 10:00:25;;;;;;;1.05;0.70;;;;;;;16.77;59.92;101733.25;5033405;28;20034;-81
2022/07/03 10:02:51;;;;;;;1.58;0.60;;;;;;;16.35;61.57;101704.97;5014733;28;20379;-82
2022/07/03 10:05:17;;;;;;;1.15;0.52;;;;;;;16.19;62.21;101714.19;5030278;28;20033;-81
2022/07/03 10:07:50;;;;;;;1.40;0.70;;;;;;;16.14;63.65;101715.78;5006735;28;20033;-82
2022/07/03 10:10:17;;;;;;;2.45;0.70;;;;;;;16.49;63.06;101711.44;5012971;28;20033;-80
2022/07/03 10:12:44;;;;;;;1.65;0.80;;;;;;;17.30;59.68;101716.59;5013856;28;20045;-80
2022/07/03 10:15:11;;;;;;;0.98;0.63;;;;;;;17.93;57.15;101738.41;5016191;28;20116;-82
2022/07/03 10:17:36;;;;;;;0.77;0.60;;;;;;;17.88;55.94;101732.72;5032587;28;20040;-81
2022/07/03 10:20:02;;;;;;;0.50;0.50;;;;;;;17.66;55.30;101723.78;4998838;28;20052;-83
2022/07/03 10:22:28;;;;;;;1.27;0.65;;;;;;;17.58;55.31;101733.75;5029053;28;20037;-82
2022/07/03 10:24:54;;;;;;;0.80;0.70;;;;;;;18.46;55.26;101725.03;5030549;28;20037;-82
2022/07/03 10:27:22;;;;;;;1.45;0.80;;;;;;;19.91;50.48;101739.84;5031279;28;20061;-81
2022/07/03 10:29:48;;;;;;;0.93;0.77;;;;;;;21.45;44.74;101728.91;5029586;28;20073;-83
2022/07/03 10:32:14;;;;;;;1.70;1.08;;;;;;;22.60;42.30;101741.97;5015269;28;20086;-79
2022/07/03 10:34:41;;;;;;;2.88;0.82;;;;;;;25.05;38.36;101743.09;5028789;28;20069;-79
2022/07/03 10:37:07;;;;;;;0.98;0.77;;;;;;;25.48;37.62;101747.13;5007872;28;20053;-80
2022/07/03 10:39:40;;;;;;;0.80;0.70;;;;;;;25.70;35.42;101730.69;5014495;28;20049;-80
2022/07/03 10:45:08;;;;;;;0.63;0.60;;;;;;;22.58;41.10;101741.34;5011808;28;20053;-81
2022/07/03 10:47:47;;;;;;;1.38;0.77;;;;;;;21.67;42.71;101738.38;5011913;28;20292;-81
2022/07/03 10:50:17;;;;;;;2.30;0.80;;;;;;;21.31;45.13;101744.56;5012552;28;20047;-80
2022/07/03 10:52:44;;;;;;;1.17;0.77;;;;;;;21.38;43.98;101744.53;5027597;28;20099;-80
2022/07/03 10:55:11;;;;;;;1.58;0.60;;;;;;;21.16;43.93;101735.84;5007293;28;20088;-80
2022/07/03 10:57:39;;;;;;;0.85;0.75;;;;;;;21.26;44.56;101742.50;5029948;28;20063;-80
2022/07/03 11:00:08;;;;;;;0.65;0.60;;;;;;;21.89;40.24;101733.31;5009821;28;20054;-83
2022/07/03 11:02:38;;;;;;;1.30;0.82;;;;;;;21.63;40.93;101750.84;5029694;28;20482;-81
2022/07/03 11:05:18;;;;;;;1.67;0.65;;;;;;;20.75;43.13;101743.50;5008200;28;20048;-81
2022/07/03 11:07:55;;;;;;;1.85;0.70;;;;;;;20.30;44.85;101759.03;5031965;28;20025;-82
2022/07/03 11:10:29;;;;;;;1.13;0.50;;;;;;;19.87;46.90;101751.38;5010594;28;20037;-82
2022/07/03 11:12:57;;;;;;;1.67;0.70;;;;;;;19.50;48.47;101740.06;5011026;28;20438;-81
2022/07/03 11:15:32;;;;;;;1.67;0.60;;;;;;;19.24;49.72;101758.13;5024420;28;20037;-82
2022/07/03 11:18:23;;;;;;;1.63;0.70;;;;;;;19.00;49.21;101756.84;5020526;28;20038;-81
2022/07/03 11:20:49;;;;;;;1.15;0.65;;;;;;;19.44;48.28;101769.03;5025571;28;20065;-80
2022/07/03 11:23:27;;;;;;;0.95;0.60;;;;;;;19.70;48.86;101767.38;5031393;28;20463;-81
2022/07/03 11:25:52;;;;;;;2.53;0.70;;;;;;;19.54;49.75;101769.44;5024312;28;20030;-81
2022/07/03 11:28:33;;;;;;;2.17;0.85;;;;;;;19.39;49.72;101765.25;5022708;28;20040;-84
2022/07/03 11:31:08;;;;;;;0.88;0.63;;;;;;;19.51;49.90;101779.97;5029343;28;20025;-82
2022/07/03 11:33:43;;;;;;;2.53;0.70;;;;;;;19.86;49.16;101761.47;5028514;28;20036;-83
2022/07/03 11:36:29;;;;;;;2.08;1.05;;;;;;;21.12;46.35;101765.56;5015230;28;20079;-81
2022/07/03 11:38:54;;;;;;;3.92;0.98;;;;;;;22.98;41.02;101763.56;5009673;28;20299;-82
2022/07/03 11:41:20;;;;;;;1.85;0.70;;;;;;;22.41;42.18;101756.75;5013579;28;20128;-82